Huvudsida
METAR-TAF:

METAR-TAF

Flygplatser :

Messina, Italien

latitud: 38-12N, longitud: 015-33E, höjd: 59 m

Aktuellt väderrapport

Denna rapport gjordes för 1 timme och 18 minuter sedan, klockan 19:55 UTC
Vind 8 kt från nord/nordväst i byarna ända upp till 25 kt
Temperatur 16°C
Fuktighet 88%
Tryck 1012 hPa
Sikt 10 km eller mer
Spridda moln på en höjd av 2000 ft

METAR: LICF 141955Z 33008G25KT 9999 SCT020 16/14 Q1012 RMK SCT QUK / QUL / VIS MAR 12 KM MON INVIS NC VIS MIN 9999

Tid: 22:13 (21:13 UTC)


TAF: saknas

Aktuella väderrapporter och prognoser från 4000 flygplatser (METAR- och TAF-rapporter).

De tillgängliga stationerna syns som gula och röda prickar på kartan.

För musen över prickarna för att se namnen på stationerna.

Klicka sedan för att få väderrapporter och prognoser.

För att ändra kartan: Klicka på de gröna knapparna med ett svart kors på för att zooma in; den gröna knappen med ett streck på för att zooma ut; eller på de gröna pilarna för angränsande kartor.


METAR-TAF: